sensor_id;sensor_type;location;lat;lon;timestamp;pressure;altitude;pressure_sealevel;temperature;humidity
25869;BME280;13688;53.154;18.136;2022-12-18T00:05:14;102495.50;;;-6.00;100.00
25869;BME280;13688;53.154;18.136;2022-12-18T00:10:37;102499.00;;;-6.00;100.00
25869;BME280;13688;53.154;18.136;2022-12-18T00:16:05;102499.88;;;-5.99;100.00
25869;BME280;13688;53.154;18.136;2022-12-18T00:21:33;102518.27;;;-5.98;100.00
25869;BME280;13688;53.154;18.136;2022-12-18T00:26:55;102518.31;;;-5.95;100.00
25869;BME280;13688;53.154;18.136;2022-12-18T00:32:18;102527.03;;;-5.96;100.00
25869;BME280;13688;53.154;18.136;2022-12-18T00:37:40;102530.55;;;-5.94;100.00
25869;BME280;13688;53.154;18.136;2022-12-18T00:43:02;102536.70;;;-5.89;100.00
25869;BME280;13688;53.154;18.136;2022-12-18T00:48:25;102546.36;;;-5.88;100.00
25869;BME280;13688;53.154;18.136;2022-12-18T00:53:48;102548.14;;;-5.85;100.00
25869;BME280;13688;53.154;18.136;2022-12-18T00:59:11;102556.03;;;-5.84;100.00
25869;BME280;13688;53.154;18.136;2022-12-18T01:04:33;102547.31;;;-5.83;100.00
25869;BME280;13688;53.154;18.136;2022-12-18T01:09:56;102550.83;;;-5.81;100.00
25869;BME280;13688;53.154;18.136;2022-12-18T01:15:19;102576.17;;;-5.80;100.00
25869;BME280;13688;53.154;18.136;2022-12-18T01:20:41;102571.80;;;-5.81;100.00
25869;BME280;13688;53.154;18.136;2022-12-18T01:26:07;102572.78;;;-5.76;100.00
25869;BME280;13688;53.154;18.136;2022-12-18T01:31:32;102589.41;;;-5.73;100.00
25869;BME280;13688;53.154;18.136;2022-12-18T01:36:55;102593.83;;;-5.69;100.00
25869;BME280;13688;53.154;18.136;2022-12-18T01:42:20;102592.20;;;-5.64;100.00
25869;BME280;13688;53.154;18.136;2022-12-18T01:47:54;102594.81;;;-5.64;100.00
25869;BME280;13688;53.154;18.136;2022-12-18T01:53:26;102599.16;;;-5.66;100.00
25869;BME280;13688;53.154;18.136;2022-12-18T01:59:03;102608.80;;;-5.64;100.00
25869;BME280;13688;53.154;18.136;2022-12-18T02:04:27;102595.80;;;-5.59;100.00
25869;BME280;13688;53.154;18.136;2022-12-18T02:10:06;102601.09;;;-5.56;100.00
25869;BME280;13688;53.154;18.136;2022-12-18T02:15:33;102609.00;;;-5.53;100.00
25869;BME280;13688;53.154;18.136;2022-12-18T02:21:08;102615.95;;;-5.55;100.00
25869;BME280;13688;53.154;18.136;2022-12-18T02:26:36;102612.50;;;-5.53;100.00
25869;BME280;13688;53.154;18.136;2022-12-18T02:32:02;102627.39;;;-5.50;100.00
25869;BME280;13688;53.154;18.136;2022-12-18T02:37:28;102629.97;;;-5.53;100.00
25869;BME280;13688;53.154;18.136;2022-12-18T02:42:51;102638.69;;;-5.54;100.00
25869;BME280;13688;53.154;18.136;2022-12-18T02:48:25;102632.54;;;-5.56;100.00
25869;BME280;13688;53.154;18.136;2022-12-18T02:53:56;102638.61;;;-5.59;100.00
25869;BME280;13688;53.154;18.136;2022-12-18T02:59:40;102649.02;;;-5.62;100.00
25869;BME280;13688;53.154;18.136;2022-12-18T03:05:20;102656.84;;;-5.63;100.00
25869;BME280;13688;53.154;18.136;2022-12-18T03:11:02;102653.30;;;-5.67;100.00
25869;BME280;13688;53.154;18.136;2022-12-18T03:16:29;102654.06;;;-5.71;100.00
25869;BME280;13688;53.154;18.136;2022-12-18T03:21:54;102663.67;;;-5.71;100.00
25869;BME280;13688;53.154;18.136;2022-12-18T03:27:20;102658.42;;;-5.71;100.00
25869;BME280;13688;53.154;18.136;2022-12-18T03:33:02;102664.50;;;-5.74;100.00
25869;BME280;13688;53.154;18.136;2022-12-18T03:38:19;102675.86;;;-5.73;100.00
25869;BME280;13688;53.154;18.136;2022-12-18T03:43:48;102687.25;;;-5.71;100.00
25869;BME280;13688;53.154;18.136;2022-12-18T03:49:32;102693.39;;;-5.69;100.00
25869;BME280;13688;53.154;18.136;2022-12-18T03:54:42;102710.86;;;-5.70;100.00
25869;BME280;13688;53.154;18.136;2022-12-18T04:00:09;102702.11;;;-5.70;100.00
25869;BME280;13688;53.154;18.136;2022-12-18T04:05:34;102707.35;;;-5.70;100.00
25869;BME280;13688;53.154;18.136;2022-12-18T04:10:59;102711.71;;;-5.71;100.00
25869;BME280;13688;53.154;18.136;2022-12-18T04:16:21;102711.71;;;-5.71;100.00
25869;BME280;13688;53.154;18.136;2022-12-18T04:21:44;102716.92;;;-5.72;100.00
25869;BME280;13688;53.154;18.136;2022-12-18T04:27:06;102717.70;;;-5.78;100.00
25869;BME280;13688;53.154;18.136;2022-12-18T04:32:29;102724.53;;;-5.85;100.00
25869;BME280;13688;53.154;18.136;2022-12-18T04:37:53;102728.03;;;-5.84;100.00
25869;BME280;13688;53.154;18.136;2022-12-18T04:43:16;102725.50;;;-5.80;100.00
25869;BME280;13688;53.154;18.136;2022-12-18T04:48:39;102740.39;;;-5.79;100.00
25869;BME280;13688;53.154;18.136;2022-12-18T04:54:01;102741.16;;;-5.83;100.00
25869;BME280;13688;53.154;18.136;2022-12-18T04:59:24;102751.61;;;-5.84;100.00
25869;BME280;13688;53.154;18.136;2022-12-18T05:04:46;102750.61;;;-5.91;100.00
25869;BME280;13688;53.154;18.136;2022-12-18T05:10:09;102758.27;;;-6.00;100.00
25869;BME280;13688;53.154;18.136;2022-12-18T05:15:35;102759.94;;;-6.03;100.00
25869;BME280;13688;53.154;18.136;2022-12-18T05:20:57;102768.64;;;-6.04;100.00
25869;BME280;13688;53.154;18.136;2022-12-18T05:26:22;102768.46;;;-6.12;100.00
25869;BME280;13688;53.154;18.136;2022-12-18T05:31:44;102785.62;;;-6.25;100.00
25869;BME280;13688;53.154;18.136;2022-12-18T05:37:06;102797.40;;;-6.42;100.00
25869;BME280;13688;53.154;18.136;2022-12-18T05:42:30;102811.40;;;-6.40;100.00
25869;BME280;13688;53.154;18.136;2022-12-18T05:47:52;102808.69;;;-6.45;100.00
25869;BME280;13688;53.154;18.136;2022-12-18T05:53:15;102812.97;;;-6.47;100.00
25869;BME280;13688;53.154;18.136;2022-12-18T05:58:39;102819.90;;;-6.49;100.00
25869;BME280;13688;53.154;18.136;2022-12-18T06:04:01;102828.63;;;-6.48;100.00
25869;BME280;13688;53.154;18.136;2022-12-18T06:09:23;102838.15;;;-6.52;100.00
25869;BME280;13688;53.154;18.136;2022-12-18T06:14:46;102840.63;;;-6.56;100.00
25869;BME280;13688;53.154;18.136;2022-12-18T06:20:09;102850.20;;;-6.57;100.00
25869;BME280;13688;53.154;18.136;2022-12-18T06:25:31;102856.11;;;-6.66;100.00
25869;BME280;13688;53.154;18.136;2022-12-18T06:30:55;102856.85;;;-6.70;100.00
25869;BME280;13688;53.154;18.136;2022-12-18T06:36:19;102873.32;;;-6.74;100.00
25869;BME280;13688;53.154;18.136;2022-12-18T06:41:42;102870.52;;;-6.80;100.00
25869;BME280;13688;53.154;18.136;2022-12-18T06:47:05;102885.99;;;-6.87;100.00
25869;BME280;13688;53.154;18.136;2022-12-18T06:52:27;102889.11;;;-7.01;100.00
25869;BME280;13688;53.154;18.136;2022-12-18T06:57:53;102894.07;;;-7.10;100.00
25869;BME280;13688;53.154;18.136;2022-12-18T07:03:16;102903.41;;;-7.18;100.00
25869;BME280;13688;53.154;18.136;2022-12-18T07:08:39;102913.73;;;-7.23;100.00
25869;BME280;13688;53.154;18.136;2022-12-18T07:14:01;102920.58;;;-7.26;100.00
25869;BME280;13688;53.154;18.136;2022-12-18T07:19:24;102937.70;;;-7.36;100.00
25869;BME280;13688;53.154;18.136;2022-12-18T07:24:46;102940.27;;;-7.37;100.00
25869;BME280;13688;53.154;18.136;2022-12-18T07:30:09;102948.11;;;-7.37;100.00
25869;BME280;13688;53.154;18.136;2022-12-18T07:35:32;102954.23;;;-7.37;100.00
25869;BME280;13688;53.154;18.136;2022-12-18T07:41:00;102969.61;;;-7.46;100.00
25869;BME280;13688;53.154;18.136;2022-12-18T07:46:22;102972.09;;;-7.51;100.00
25869;BME280;13688;53.154;18.136;2022-12-18T07:51:45;102972.34;;;-7.43;100.00
25869;BME280;13688;53.154;18.136;2022-12-18T07:57:07;102974.20;;;-7.39;100.00
25869;BME280;13688;53.154;18.136;2022-12-18T08:02:32;102985.58;;;-7.37;100.00
25869;BME280;13688;53.154;18.136;2022-12-18T08:07:55;102982.92;;;-7.38;100.00
25869;BME280;13688;53.154;18.136;2022-12-18T08:13:17;102981.70;;;-7.50;100.00
25869;BME280;13688;53.154;18.136;2022-12-18T08:18:41;103002.39;;;-7.56;100.00
25869;BME280;13688;53.154;18.136;2022-12-18T08:24:05;103013.89;;;-7.76;100.00
25869;BME280;13688;53.154;18.136;2022-12-18T08:29:28;103014.73;;;-7.77;100.00
25869;BME280;13688;53.154;18.136;2022-12-18T08:34:50;103023.41;;;-7.78;100.00
25869;BME280;13688;53.154;18.136;2022-12-18T08:40:13;103024.34;;;-7.76;100.00
25869;BME280;13688;53.154;18.136;2022-12-18T08:45:36;103033.42;;;-7.65;100.00
25869;BME280;13688;53.154;18.136;2022-12-18T08:51:00;103044.44;;;-7.73;100.00
25869;BME280;13688;53.154;18.136;2022-12-18T08:56:23;103051.88;;;-7.60;100.00
25869;BME280;13688;53.154;18.136;2022-12-18T09:01:47;103046.39;;;-7.68;100.00
25869;BME280;13688;53.154;18.136;2022-12-18T09:07:10;103046.13;;;-7.75;100.00
25869;BME280;13688;53.154;18.136;2022-12-18T09:12:32;103030.63;;;-7.71;100.00
25869;BME280;13688;53.154;18.136;2022-12-18T09:17:56;103040.64;;;-7.58;100.00
25869;BME280;13688;53.154;18.136;2022-12-18T09:23:19;103055.34;;;-7.61;100.00
25869;BME280;13688;53.154;18.136;2022-12-18T09:28:42;103031.17;;;-7.54;100.00
25869;BME280;13688;53.154;18.136;2022-12-18T09:34:05;103020.95;;;-7.21;100.00
25869;BME280;13688;53.154;18.136;2022-12-18T09:39:30;103018.42;;;-7.18;100.00
25869;BME280;13688;53.154;18.136;2022-12-18T09:44:59;103014.20;;;-7.41;100.00
25869;BME280;13688;53.154;18.136;2022-12-18T09:50:33;103023.55;;;-7.48;100.00
25869;BME280;13688;53.154;18.136;2022-12-18T09:55:57;103036.56;;;-7.50;100.00
25869;BME280;13688;53.154;18.136;2022-12-18T10:01:21;103034.65;;;-7.28;100.00
25869;BME280;13688;53.154;18.136;2022-12-18T10:07:04;103023.40;;;-7.26;100.00
25869;BME280;13688;53.154;18.136;2022-12-18T10:30:29;103030.91;;;-7.09;100.00
25869;BME280;13688;53.154;18.136;2022-12-18T10:35:53;103041.61;;;-7.29;100.00
25869;BME280;13688;53.154;18.136;2022-12-18T10:41:27;103044.91;;;-7.07;100.00
25869;BME280;13688;53.154;18.136;2022-12-18T10:46:53;103056.25;;;-7.07;100.00
25869;BME280;13688;53.154;18.136;2022-12-18T10:52:23;103052.31;;;-7.21;100.00
25869;BME280;13688;53.154;18.136;2022-12-18T10:57:48;103055.19;;;-7.13;100.00
25869;BME280;13688;53.154;18.136;2022-12-18T11:03:32;103056.16;;;-7.10;100.00
25869;BME280;13688;53.154;18.136;2022-12-18T11:09:02;103064.63;;;-7.17;99.58
25869;BME280;13688;53.154;18.136;2022-12-18T11:14:42;103082.93;;;-7.17;99.21
25869;BME280;13688;53.154;18.136;2022-12-18T11:25:59;103075.22;;;-7.14;98.83
25869;BME280;13688;53.154;18.136;2022-12-18T11:31:33;103074.37;;;-7.13;98.60
25869;BME280;13688;53.154;18.136;2022-12-18T11:36:57;103071.25;;;-7.01;98.62
25869;BME280;13688;53.154;18.136;2022-12-18T11:43:25;103057.76;;;-6.86;98.51
25869;BME280;13688;53.154;18.136;2022-12-18T11:48:27;103059.41;;;-6.61;98.41
25869;BME280;13688;53.154;18.136;2022-12-18T11:53:57;103054.65;;;-6.46;97.79
25869;BME280;13688;53.154;18.136;2022-12-18T12:05:18;103058.80;;;-6.81;95.72
25869;BME280;13688;53.154;18.136;2022-12-18T12:11:35;103071.00;;;-7.09;95.22
25869;BME280;13688;53.154;18.136;2022-12-18T12:29:13;103088.16;;;-7.17;95.57
25869;BME280;13688;53.154;18.136;2022-12-18T12:40:28;103100.08;;;-7.25;96.20
25869;BME280;13688;53.154;18.136;2022-12-18T12:45:57;103117.26;;;-7.33;96.89
25869;BME280;13688;53.154;18.136;2022-12-18T12:51:25;103121.74;;;-7.29;97.37
25869;BME280;13688;53.154;18.136;2022-12-18T12:56:57;103134.33;;;-7.17;97.83
25869;BME280;13688;53.154;18.136;2022-12-18T13:08:30;103132.51;;;-7.20;97.95
25869;BME280;13688;53.154;18.136;2022-12-18T13:14:19;103145.61;;;-7.44;97.39
25869;BME280;13688;53.154;18.136;2022-12-18T13:19:38;103143.13;;;-7.65;97.10
25869;BME280;13688;53.154;18.136;2022-12-18T13:25:03;103141.64;;;-7.58;97.36
25869;BME280;13688;53.154;18.136;2022-12-18T13:30:53;103135.67;;;-7.54;97.51
25869;BME280;13688;53.154;18.136;2022-12-18T13:36:34;103139.08;;;-7.57;97.48
25869;BME280;13688;53.154;18.136;2022-12-18T13:42:47;103139.25;;;-7.76;97.32
25869;BME280;13688;53.154;18.136;2022-12-18T13:47:40;103131.37;;;-7.77;97.63
25869;BME280;13688;53.154;18.136;2022-12-18T13:53:06;103141.77;;;-7.79;98.00
25869;BME280;13688;53.154;18.136;2022-12-18T13:58:31;103149.59;;;-7.79;98.48
25869;BME280;13688;53.154;18.136;2022-12-18T14:04:10;103141.02;;;-7.75;98.97
25869;BME280;13688;53.154;18.136;2022-12-18T14:09:55;103138.97;;;-7.84;99.10
25869;BME280;13688;53.154;18.136;2022-12-18T14:15:32;103146.15;;;-7.78;99.58
25869;BME280;13688;53.154;18.136;2022-12-18T14:21:00;103150.20;;;-7.86;99.57
25869;BME280;13688;53.154;18.136;2022-12-18T14:26:31;103154.24;;;-7.94;99.81
25869;BME280;13688;53.154;18.136;2022-12-18T14:32:10;103164.98;;;-7.87;100.00
25869;BME280;13688;53.154;18.136;2022-12-18T14:37:33;103153.88;;;-7.81;100.00
25869;BME280;13688;53.154;18.136;2022-12-18T14:42:55;103162.80;;;-7.74;100.00
25869;BME280;13688;53.154;18.136;2022-12-18T14:48:39;103158.42;;;-7.75;100.00
25869;BME280;13688;53.154;18.136;2022-12-18T14:54:14;103149.41;;;-7.84;100.00
25869;BME280;13688;53.154;18.136;2022-12-18T14:59:32;103164.79;;;-7.91;100.00
25869;BME280;13688;53.154;18.136;2022-12-18T15:05:05;103162.08;;;-7.94;100.00
25869;BME280;13688;53.154;18.136;2022-12-18T15:10:32;103163.02;;;-7.92;100.00
25869;BME280;13688;53.154;18.136;2022-12-18T15:16:00;103169.96;;;-7.93;100.00
25869;BME280;13688;53.154;18.136;2022-12-18T15:21:27;103193.51;;;-7.91;100.00
25869;BME280;13688;53.154;18.136;2022-12-18T15:26:49;103198.14;;;-7.84;100.00
25869;BME280;13688;53.154;18.136;2022-12-18T15:32:18;103196.61;;;-7.79;100.00
25869;BME280;13688;53.154;18.136;2022-12-18T15:37:38;103180.80;;;-7.82;100.00
25869;BME280;13688;53.154;18.136;2022-12-18T15:43:01;103179.81;;;-7.86;100.00
25869;BME280;13688;53.154;18.136;2022-12-18T15:48:44;103183.36;;;-7.84;100.00
25869;BME280;13688;53.154;18.136;2022-12-18T15:54:11;103191.92;;;-7.88;100.00
25869;BME280;13688;53.154;18.136;2022-12-18T15:59:54;103199.57;;;-7.92;100.00
25869;BME280;13688;53.154;18.136;2022-12-18T16:05:18;103193.45;;;-7.93;100.00
25869;BME280;13688;53.154;18.136;2022-12-18T16:10:42;103197.80;;;-7.93;100.00
25869;BME280;13688;53.154;18.136;2022-12-18T16:16:05;103189.36;;;-7.86;100.00
25869;BME280;13688;53.154;18.136;2022-12-18T16:21:27;103167.93;;;-7.77;100.00
25869;BME280;13688;53.154;18.136;2022-12-18T16:26:50;103155.91;;;-7.72;100.00
25869;BME280;13688;53.154;18.136;2022-12-18T16:32:16;103151.80;;;-7.66;100.00
25869;BME280;13688;53.154;18.136;2022-12-18T16:37:39;103152.97;;;-7.58;100.00
25869;BME280;13688;53.154;18.136;2022-12-18T16:43:03;103147.98;;;-7.52;100.00
25869;BME280;13688;53.154;18.136;2022-12-18T16:48:25;103148.03;;;-7.50;100.00
25869;BME280;13688;53.154;18.136;2022-12-18T16:53:48;103145.46;;;-7.48;100.00
25869;BME280;13688;53.154;18.136;2022-12-18T16:59:13;103141.27;;;-7.43;100.00
25869;BME280;13688;53.154;18.136;2022-12-18T17:04:40;103137.16;;;-7.37;100.00
25869;BME280;13688;53.154;18.136;2022-12-18T17:10:03;103151.99;;;-7.36;100.00
25869;BME280;13688;53.154;18.136;2022-12-18T17:15:27;103130.42;;;-7.30;100.00
25869;BME280;13688;53.154;18.136;2022-12-18T17:20:57;103139.15;;;-7.30;100.00
25869;BME280;13688;53.154;18.136;2022-12-18T17:26:18;103133.83;;;-7.33;100.00
25869;BME280;13688;53.154;18.136;2022-12-18T17:31:41;103138.27;;;-7.30;100.00
25869;BME280;13688;53.154;18.136;2022-12-18T17:37:05;103138.41;;;-7.26;100.00
25869;BME280;13688;53.154;18.136;2022-12-18T17:42:28;103139.15;;;-7.30;100.00
25869;BME280;13688;53.154;18.136;2022-12-18T17:47:51;103122.89;;;-7.21;100.00
25869;BME280;13688;53.154;18.136;2022-12-18T17:53:14;103115.36;;;-7.37;100.00
25869;BME280;13688;53.154;18.136;2022-12-18T17:58:37;103132.67;;;-7.41;100.00
25869;BME280;13688;53.154;18.136;2022-12-18T18:04:01;103125.91;;;-7.34;100.00
25869;BME280;13688;53.154;18.136;2022-12-18T18:09:24;103131.09;;;-7.36;100.00
25869;BME280;13688;53.154;18.136;2022-12-18T18:14:47;103121.95;;;-7.48;100.00
25869;BME280;13688;53.154;18.136;2022-12-18T18:20:12;103133.06;;;-7.54;100.00
25869;BME280;13688;53.154;18.136;2022-12-18T18:25:40;103136.46;;;-7.57;100.00
25869;BME280;13688;53.154;18.136;2022-12-18T18:31:05;103138.09;;;-7.60;100.00
25869;BME280;13688;53.154;18.136;2022-12-18T18:36:28;103165.05;;;-7.61;100.00
25869;BME280;13688;53.154;18.136;2022-12-18T18:41:51;103164.21;;;-7.60;100.00
25869;BME280;13688;53.154;18.136;2022-12-18T18:47:14;103151.30;;;-7.56;100.00
25869;BME280;13688;53.154;18.136;2022-12-18T18:52:37;103154.27;;;-7.70;100.00
25869;BME280;13688;53.154;18.136;2022-12-18T18:57:59;103168.92;;;-7.74;100.00
25869;BME280;13688;53.154;18.136;2022-12-18T19:03:22;103163.85;;;-7.93;100.00
25869;BME280;13688;53.154;18.136;2022-12-18T19:08:45;103166.46;;;-7.93;100.00
25869;BME280;13688;53.154;18.136;2022-12-18T19:14:10;103164.53;;;-7.99;100.00
25869;BME280;13688;53.154;18.136;2022-12-18T19:19:33;103167.69;;;-8.08;100.00
25869;BME280;13688;53.154;18.136;2022-12-18T19:24:55;103156.41;;;-8.07;100.00
25869;BME280;13688;53.154;18.136;2022-12-18T19:30:19;103147.80;;;-8.04;100.00
25869;BME280;13688;53.154;18.136;2022-12-18T19:35:41;103145.13;;;-8.05;100.00
25869;BME280;13688;53.154;18.136;2022-12-18T19:41:04;103133.61;;;-8.11;100.00
25869;BME280;13688;53.154;18.136;2022-12-18T19:46:30;103121.05;;;-8.21;100.00
25869;BME280;13688;53.154;18.136;2022-12-18T19:51:54;103116.91;;;-8.16;100.00
25869;BME280;13688;53.154;18.136;2022-12-18T19:57:17;103118.63;;;-8.16;100.00
25869;BME280;13688;53.154;18.136;2022-12-18T20:02:40;103116.61;;;-8.23;100.00
25869;BME280;13688;53.154;18.136;2022-12-18T20:08:04;103125.69;;;-8.38;100.00
25869;BME280;13688;53.154;18.136;2022-12-18T20:13:26;103132.44;;;-8.43;100.00
25869;BME280;13688;53.154;18.136;2022-12-18T20:18:49;103126.44;;;-8.40;100.00
25869;BME280;13688;53.154;18.136;2022-12-18T20:24:13;103143.06;;;-8.38;100.00
25869;BME280;13688;53.154;18.136;2022-12-18T20:29:37;103145.80;;;-8.33;100.00
25869;BME280;13688;53.154;18.136;2022-12-18T20:34:59;103144.06;;;-8.34;100.00
25869;BME280;13688;53.154;18.136;2022-12-18T20:40:23;103133.47;;;-8.39;100.00
25869;BME280;13688;53.154;18.136;2022-12-18T20:45:46;103131.74;;;-8.39;100.00
25869;BME280;13688;53.154;18.136;2022-12-18T20:51:15;103150.06;;;-8.37;100.00
25869;BME280;13688;53.154;18.136;2022-12-18T20:56:41;103154.39;;;-8.38;100.00
25869;BME280;13688;53.154;18.136;2022-12-18T21:02:03;103155.61;;;-8.50;100.00
25869;BME280;13688;53.154;18.136;2022-12-18T21:07:28;103145.95;;;-8.53;100.00
25869;BME280;13688;53.154;18.136;2022-12-18T21:12:50;103145.84;;;-8.56;100.00
25869;BME280;13688;53.154;18.136;2022-12-18T21:18:16;103158.94;;;-8.54;100.00
25869;BME280;13688;53.154;18.136;2022-12-18T21:23:40;103154.50;;;-8.57;100.00
25869;BME280;13688;53.154;18.136;2022-12-18T21:29:06;103155.61;;;-8.50;100.00
25869;BME280;13688;53.154;18.136;2022-12-18T21:34:33;103156.70;;;-8.45;100.00
25869;BME280;13688;53.154;18.136;2022-12-18T21:39:57;103160.19;;;-8.45;100.00
25869;BME280;13688;53.154;18.136;2022-12-18T21:45:19;103157.63;;;-8.43;100.00
25869;BME280;13688;53.154;18.136;2022-12-18T21:50:42;103148.09;;;-8.43;100.00
25869;BME280;13688;53.154;18.136;2022-12-18T21:56:04;103141.34;;;-8.38;100.00
25869;BME280;13688;53.154;18.136;2022-12-18T22:01:27;103151.02;;;-8.33;100.00
25869;BME280;13688;53.154;18.136;2022-12-18T22:06:51;103147.63;;;-8.31;100.00
25869;BME280;13688;53.154;18.136;2022-12-18T22:12:15;103136.30;;;-8.31;100.00
25869;BME280;13688;53.154;18.136;2022-12-18T22:17:48;103127.78;;;-8.27;100.00
25869;BME280;13688;53.154;18.136;2022-12-18T22:23:11;103127.59;;;-8.32;100.00
25869;BME280;13688;53.154;18.136;2022-12-18T22:28:34;103128.24;;;-8.39;100.00
25869;BME280;13688;53.154;18.136;2022-12-18T22:34:15;103124.66;;;-8.41;100.00
25869;BME280;13688;53.154;18.136;2022-12-18T22:39:38;103123.03;;;-8.39;100.00
25869;BME280;13688;53.154;18.136;2022-12-18T22:45:01;103111.76;;;-8.38;100.00
25869;BME280;13688;53.154;18.136;2022-12-18T22:50:24;103094.38;;;-8.38;100.00
25869;BME280;13688;53.154;18.136;2022-12-18T22:55:46;103092.52;;;-8.40;100.00
25869;BME280;13688;53.154;18.136;2022-12-18T23:01:18;103096.16;;;-8.37;100.00
25869;BME280;13688;53.154;18.136;2022-12-18T23:06:43;103084.78;;;-8.39;100.00
25869;BME280;13688;53.154;18.136;2022-12-18T23:12:06;103081.34;;;-8.38;100.00
25869;BME280;13688;53.154;18.136;2022-12-18T23:17:30;103073.87;;;-8.27;100.00
25869;BME280;13688;53.154;18.136;2022-12-18T23:22:52;103071.13;;;-8.30;100.00
25869;BME280;13688;53.154;18.136;2022-12-18T23:28:14;103073.87;;;-8.27;100.00
25869;BME280;13688;53.154;18.136;2022-12-18T23:33:38;103068.75;;;-8.24;100.00
25869;BME280;13688;53.154;18.136;2022-12-18T23:39:05;103067.08;;;-8.22;100.00
25869;BME280;13688;53.154;18.136;2022-12-18T23:44:30;103055.11;;;-8.17;100.00
25869;BME280;13688;53.154;18.136;2022-12-18T23:49:52;103045.66;;;-8.13;100.00
25869;BME280;13688;53.154;18.136;2022-12-18T23:55:15;103039.64;;;-8.11;99.91
